createdAt,value
2023-04-23T00:00:29.641Z,81.02
2023-04-23T00:04:33.160Z,81.61
2023-04-23T00:08:34.945Z,81.25
2023-04-23T00:12:36.457Z,81.77
2023-04-23T00:16:39.438Z,80.41
2023-04-23T00:20:42.294Z,80.12
2023-04-23T00:24:43.755Z,80.77
2023-04-23T00:28:45.135Z,81.72
2023-04-23T00:32:46.758Z,82.97
2023-04-23T00:36:49.536Z,82.55
2023-04-23T00:40:50.938Z,82.28
2023-04-23T00:44:52.631Z,81.98
2023-04-23T00:48:56.352Z,82.33
2023-04-23T00:52:59.706Z,82.78
2023-04-23T00:57:01.767Z,82.75
2023-04-23T01:01:03.336Z,82.24
2023-04-23T01:05:07.311Z,82.67
2023-04-23T01:09:10.726Z,82.46
2023-04-23T01:13:12.952Z,82.24
2023-04-23T01:17:14.403Z,81.48
2023-04-23T01:21:17.876Z,81.90
2023-04-23T01:25:20.885Z,82.05
2023-04-23T01:29:22.387Z,81.82
2023-04-23T01:33:23.916Z,82.06
2023-04-23T01:37:26.826Z,82.08
2023-04-23T01:41:29.862Z,81.66
2023-04-23T01:45:31.645Z,81.64
2023-04-23T01:49:33.140Z,81.67
2023-04-23T01:53:34.619Z,81.51
2023-04-23T01:57:37.423Z,81.56
2023-04-23T02:01:42.614Z,81.38
2023-04-23T02:05:44.793Z,81.47
2023-04-23T02:09:46.201Z,81.38
2023-04-23T02:13:48.912Z,81.94
2023-04-23T02:17:50.358Z,81.64
2023-04-23T02:21:51.789Z,81.97
2023-04-23T02:25:53.205Z,82.79
2023-04-23T02:29:55.987Z,82.48
2023-04-23T02:33:57.479Z,82.60
2023-04-23T02:37:58.900Z,82.86
2023-04-23T02:42:00.738Z,82.19
2023-04-23T02:46:03.468Z,83.16
2023-04-23T02:50:06.237Z,82.93
2023-04-23T02:54:07.742Z,81.35
2023-04-23T02:58:09.158Z,81.70
2023-04-23T03:02:13.026Z,80.99
2023-04-23T03:06:14.969Z,80.93
2023-04-23T03:10:16.604Z,79.74
2023-04-23T03:14:18.019Z,79.97
2023-04-23T03:18:21.070Z,79.66
2023-04-23T03:22:22.502Z,79.14
2023-04-23T03:26:23.976Z,79.23
2023-04-23T03:30:25.468Z,78.21
2023-04-23T03:34:28.185Z,78.52
2023-04-23T03:38:29.666Z,78.74
2023-04-23T03:42:31.074Z,79.99
2023-04-23T03:46:32.805Z,79.80
2023-04-23T03:50:35.840Z,79.28
2023-04-23T03:54:37.285Z,79.59
2023-04-23T03:58:38.677Z,79.43
2023-04-23T04:02:41.324Z,79.03
2023-04-23T04:06:44.470Z,78.75
2023-04-23T04:10:46.399Z,77.82
2023-04-23T04:14:48.021Z,78.14
2023-04-23T04:18:49.399Z,79.04
2023-04-23T04:22:52.380Z,77.97
2023-04-23T04:26:53.754Z,78.80
2023-04-23T04:30:55.484Z,78.13
2023-04-23T04:34:57.044Z,78.12
2023-04-23T04:38:59.763Z,77.89
2023-04-23T04:43:01.152Z,77.93
2023-04-23T04:47:02.585Z,77.92
2023-04-23T04:51:04.337Z,77.86
2023-04-23T04:55:08.651Z,78.61
2023-04-23T04:59:10.077Z,78.82
2023-04-23T05:03:14.303Z,80.35
2023-04-23T05:07:16.046Z,79.73
2023-04-23T05:11:19.729Z,80.39
2023-04-23T05:15:21.138Z,80.94
2023-04-23T05:19:22.751Z,79.29
2023-04-23T05:23:25.684Z,78.86
2023-04-23T05:27:30.913Z,80.80
2023-04-23T05:31:32.430Z,80.94
2023-04-23T05:35:33.905Z,81.52
2023-04-23T05:39:35.494Z,81.03
2023-04-23T05:43:38.290Z,83.08
2023-04-23T05:47:39.744Z,83.26
2023-04-23T05:51:41.297Z,83.99
2023-04-23T05:55:42.980Z,84.67
2023-04-23T05:59:45.743Z,83.80
2023-04-23T06:03:47.443Z,83.94
2023-04-23T06:07:49.215Z,82.78
2023-04-23T06:11:51.937Z,82.00
2023-04-23T06:15:55.455Z,79.92
2023-04-23T06:19:56.957Z,80.63
2023-04-23T06:23:58.388Z,80.63
2023-04-23T06:27:59.765Z,79.02
2023-04-23T06:32:03.215Z,75.24
2023-04-23T06:36:05.623Z,75.32
2023-04-23T06:40:08.354Z,74.54
2023-04-23T06:44:09.834Z,75.65
2023-04-23T06:48:13.094Z,72.91
2023-04-23T06:52:14.501Z,73.32
2023-04-23T06:56:15.854Z,73.04
2023-04-23T07:00:17.887Z,68.97
2023-04-23T07:04:20.977Z,68.71
2023-04-23T07:08:22.639Z,67.45
2023-04-23T07:12:24.377Z,65.01
2023-04-23T07:16:25.937Z,63.07
2023-04-23T07:20:29.053Z,62.98
2023-04-23T07:24:30.507Z,63.69
2023-04-23T07:28:32.242Z,63.21
2023-04-23T07:32:33.709Z,62.85
2023-04-23T07:36:37.281Z,57.07
2023-04-23T07:40:38.801Z,100.00
2023-04-23T07:44:40.202Z,100.00
2023-04-23T07:48:42.748Z,57.07
2023-04-23T07:52:45.532Z,100.00
2023-04-23T07:56:46.939Z,100.00
2023-04-23T08:00:48.320Z,47.04
2023-04-23T08:04:49.915Z,49.01
2023-04-23T08:08:52.774Z,52.87
2023-04-23T08:12:54.334Z,53.59
2023-04-23T08:16:57.167Z,54.28
2023-04-23T08:20:58.808Z,54.33
2023-04-23T08:25:01.605Z,52.48
2023-04-23T08:29:03.088Z,49.52
2023-04-23T08:33:04.602Z,46.99
2023-04-23T08:37:11.737Z,43.67
2023-04-23T08:41:23.068Z,41.00
2023-04-23T08:45:25.165Z,41.08
2023-04-23T08:49:32.982Z,42.49
2023-04-23T08:53:34.460Z,39.18
2023-04-23T08:57:39.872Z,38.81
2023-04-23T09:01:41.906Z,37.61
2023-04-23T09:05:43.923Z,41.27
2023-04-23T09:09:45.520Z,41.65
2023-04-23T09:13:48.561Z,43.14
2023-04-23T09:17:50.076Z,43.06
2023-04-23T09:21:52.508Z,43.36
2023-04-23T09:25:53.938Z,42.80
2023-04-23T09:29:56.680Z,42.70
2023-04-23T09:33:58.159Z,43.96
2023-04-23T09:38:01.214Z,43.86
2023-04-23T09:42:04.660Z,43.99
2023-04-23T09:46:07.516Z,42.92
2023-04-23T09:50:09.865Z,42.92
2023-04-23T09:54:12.601Z,42.69
2023-04-23T09:58:15.613Z,41.68
2023-04-23T10:02:18.829Z,40.55
2023-04-23T10:10:36.347Z,42.65
2023-04-23T10:14:46.141Z,41.62
2023-04-23T10:18:50.552Z,41.67
2023-04-23T10:22:54.485Z,41.99
2023-04-23T10:27:01.281Z,44.24
2023-04-23T10:31:05.313Z,43.36
2023-04-23T10:35:09.623Z,42.56
2023-04-23T10:39:15.848Z,43.48
2023-04-23T10:43:23.713Z,44.34
2023-04-23T10:47:25.140Z,42.95
2023-04-23T10:52:17.132Z,41.73
2023-04-23T10:56:05.252Z,42.59
2023-04-23T11:00:08.411Z,42.17
2023-04-23T11:04:23.423Z,40.78
2023-04-23T11:08:26.310Z,39.10
2023-04-23T11:12:32.558Z,41.08
2023-04-23T11:16:34.022Z,40.74
2023-04-23T11:20:35.594Z,40.54
2023-04-23T11:24:39.919Z,41.40
2023-04-23T11:28:43.525Z,39.54
2023-04-23T11:32:46.288Z,39.49
2023-04-23T11:36:51.070Z,39.83
2023-04-23T11:40:54.328Z,38.44
2023-04-23T11:44:55.764Z,38.50
2023-04-23T11:48:59.214Z,37.76
2023-04-23T11:53:05.402Z,39.83
2023-04-23T11:57:08.284Z,40.15
2023-04-23T12:01:11.120Z,38.78
2023-04-23T12:05:12.868Z,38.62
2023-04-23T12:09:15.596Z,37.98
2023-04-23T12:13:21.040Z,38.46
2023-04-23T12:17:22.481Z,39.26
2023-04-23T12:21:26.084Z,37.78
2023-04-23T12:25:27.770Z,37.81
2023-04-23T12:29:32.547Z,38.14
2023-04-23T12:33:34.030Z,37.49
2023-04-23T12:37:36.616Z,37.55
2023-04-23T12:41:37.995Z,38.13
2023-04-23T12:45:40.763Z,38.96
2023-04-23T12:49:42.550Z,37.56
2023-04-23T12:53:44.087Z,37.02
2023-04-23T12:57:45.551Z,37.22
2023-04-23T13:01:48.458Z,37.75
2023-04-23T13:05:49.914Z,37.15
2023-04-23T13:09:51.646Z,37.85
2023-04-23T13:13:53.114Z,37.75
2023-04-23T13:17:55.914Z,38.91
2023-04-23T13:21:57.419Z,38.78
2023-04-23T13:25:58.869Z,38.93
2023-04-23T13:30:00.296Z,39.37
2023-04-23T13:34:03.084Z,39.98
2023-04-23T13:38:04.694Z,39.05
2023-04-23T13:42:09.639Z,40.23
2023-04-23T13:46:11.780Z,40.47
2023-04-23T13:50:14.627Z,40.67
2023-04-23T13:54:16.067Z,41.48
2023-04-23T13:58:18.024Z,41.32
2023-04-23T14:02:19.527Z,41.93
2023-04-23T14:06:22.619Z,41.33
2023-04-23T14:10:24.293Z,41.56
2023-04-23T14:14:25.700Z,41.40
2023-04-23T14:18:27.155Z,41.80
2023-04-23T14:22:29.959Z,42.54
2023-04-23T14:26:47.266Z,42.41
2023-04-23T14:30:54.460Z,42.06
2023-04-23T14:34:55.897Z,42.45
2023-04-23T14:38:58.638Z,43.17
2023-04-23T14:43:12.180Z,43.22
2023-04-23T14:47:16.469Z,43.36
2023-04-23T14:51:18.009Z,43.84
2023-04-23T14:55:21.479Z,44.20
2023-04-23T14:59:23.484Z,45.74
2023-04-23T15:03:25.044Z,49.46
2023-04-23T15:07:26.560Z,49.83
2023-04-23T15:11:29.445Z,49.53
2023-04-23T15:15:45.016Z,50.10
2023-04-23T15:19:46.820Z,50.85
2023-04-23T15:23:48.242Z,53.11
2023-04-23T15:27:51.136Z,55.30
2023-04-23T15:31:52.672Z,59.42
2023-04-23T15:35:54.086Z,62.18
2023-04-23T15:39:57.080Z,60.49
2023-04-23T15:44:01.580Z,65.56
2023-04-23T15:48:03.270Z,70.50
2023-04-23T15:52:04.798Z,70.96
2023-04-23T15:56:06.242Z,73.16
2023-04-23T16:00:10.416Z,74.10
2023-04-23T16:04:12.436Z,69.65
2023-04-23T16:08:14.125Z,69.46
2023-04-23T16:12:16.591Z,68.45
2023-04-23T16:16:20.863Z,68.31
2023-04-23T16:20:22.648Z,73.63
2023-04-23T16:24:24.068Z,73.42
2023-04-23T16:28:25.771Z,72.84
2023-04-23T16:32:28.587Z,72.45
2023-04-23T16:36:30.141Z,76.36
2023-04-23T16:40:31.780Z,75.67
2023-04-23T16:44:33.241Z,76.10
2023-04-23T16:48:36.045Z,74.59
2023-04-23T16:52:37.475Z,75.06
2023-04-23T16:56:39.279Z,74.13
2023-04-23T17:00:40.727Z,74.56
2023-04-23T17:04:43.844Z,74.53
2023-04-23T17:08:45.773Z,74.79
2023-04-23T17:12:47.230Z,74.67
2023-04-23T17:16:48.709Z,75.25
2023-04-23T17:20:51.607Z,74.72
2023-04-23T17:24:53.260Z,75.51
2023-04-23T17:28:54.758Z,75.09
2023-04-23T17:32:56.240Z,74.52
2023-04-23T17:36:59.084Z,75.79
2023-04-23T17:41:00.542Z,75.28
2023-04-23T17:45:02.069Z,74.79
2023-04-23T17:49:03.480Z,74.59
2023-04-23T17:53:06.285Z,73.13
2023-04-23T17:57:07.736Z,74.07
2023-04-23T18:01:09.248Z,74.69
2023-04-23T18:05:12.572Z,73.96
2023-04-23T18:09:15.361Z,73.79
2023-04-23T18:13:16.972Z,74.06
2023-04-23T18:17:18.393Z,73.83
2023-04-23T18:21:19.912Z,74.03
2023-04-23T18:25:22.985Z,74.34
2023-04-23T18:29:24.952Z,74.22
2023-04-23T18:33:30.908Z,73.68
2023-04-23T18:37:38.198Z,74.25
2023-04-23T18:41:41.039Z,74.04
2023-04-23T18:45:42.616Z,73.32
2023-04-23T18:49:46.680Z,73.79
2023-04-23T18:53:49.230Z,73.11
2023-04-23T18:57:52.306Z,74.42
2023-04-23T19:01:55.062Z,73.93
2023-04-23T19:05:56.925Z,76.10
2023-04-23T19:09:58.317Z,77.19
2023-04-23T19:14:01.272Z,77.25
2023-04-23T19:18:02.876Z,79.81
2023-04-23T19:22:04.504Z,79.63
2023-04-23T19:26:05.939Z,79.88
2023-04-23T19:30:09.670Z,80.37
2023-04-23T19:34:11.120Z,81.89
2023-04-23T19:38:12.602Z,83.27
2023-04-23T19:42:14.053Z,83.73
2023-04-23T19:46:17.032Z,82.73
2023-04-23T19:50:18.700Z,83.17
2023-04-23T19:54:21.416Z,85.81
2023-04-23T19:58:23.676Z,84.72
2023-04-23T20:02:26.796Z,81.69
2023-04-23T20:06:28.216Z,84.82
2023-04-23T20:10:29.797Z,85.02
2023-04-23T20:14:31.211Z,78.35
2023-04-23T20:18:33.972Z,78.14
2023-04-23T20:22:35.425Z,74.36
2023-04-23T20:26:38.401Z,73.65
2023-04-23T20:30:40.904Z,70.71
2023-04-23T20:34:43.981Z,69.71
2023-04-23T20:38:45.528Z,68.02
2023-04-23T20:42:47.209Z,66.10
2023-04-23T20:46:48.938Z,67.05
2023-04-23T20:50:51.814Z,64.84
2023-04-23T20:54:53.536Z,67.29
2023-04-23T20:58:56.593Z,67.21
2023-04-23T21:02:58.263Z,68.67
2023-04-23T21:07:01.528Z,71.84
2023-04-23T21:11:03.219Z,68.93
2023-04-23T21:15:05.524Z,65.90
2023-04-23T21:19:07.090Z,68.49
2023-04-23T21:23:10.618Z,66.64
2023-04-23T21:27:15.403Z,67.61
2023-04-23T21:31:28.021Z,69.66
2023-04-23T21:35:29.636Z,66.04
2023-04-23T21:39:32.615Z,67.33
2023-04-23T21:43:34.130Z,66.65
2023-04-23T21:47:35.670Z,69.97
2023-04-23T21:51:37.285Z,71.80
2023-04-23T21:55:40.153Z,73.53
2023-04-23T21:59:41.989Z,74.05
2023-04-23T22:03:43.849Z,72.06
2023-04-23T22:07:45.726Z,72.57
2023-04-23T22:12:01.084Z,72.77
2023-04-23T22:16:10.730Z,69.85
2023-04-23T22:20:18.830Z,68.67
2023-04-23T22:24:20.419Z,68.42
2023-04-23T22:28:23.249Z,68.83
2023-04-23T22:32:24.817Z,66.47
2023-04-23T22:36:26.386Z,67.81
2023-04-23T22:40:27.799Z,69.42
2023-04-23T22:44:30.563Z,71.08
2023-04-23T22:48:32.170Z,68.59
2023-04-23T22:52:33.557Z,69.51
2023-04-23T22:56:35.357Z,72.21
2023-04-23T23:00:38.191Z,70.28
2023-04-23T23:04:39.644Z,70.84
2023-04-23T23:08:41.195Z,70.89
2023-04-23T23:12:42.870Z,69.50
2023-04-23T23:16:45.739Z,69.40
2023-04-23T23:20:47.251Z,68.97
2023-04-23T23:24:48.757Z,72.19
2023-04-23T23:28:50.177Z,74.92
2023-04-23T23:32:53.389Z,76.62
2023-04-23T23:36:54.943Z,74.46
2023-04-23T23:40:56.510Z,75.67
2023-04-23T23:44:58.072Z,72.34
2023-04-23T23:49:00.980Z,75.21
2023-04-23T23:53:02.482Z,76.07
2023-04-23T23:57:03.967Z,73.16
